Time;durP1;ratioP1;P1;durP2;ratioP2;P2;SDS_P1;SDS_P2;PMS_P1;PMS_P2;Temp;Humidity;BMP_temperature;BMP_pressure;BME280_temperature;BME280_humidity;BME280_pressure;Samples;Min_cycle;Max_cycle;Signal;HPM_P1;HPM_P2
2022/05/26 00:01:53;;;;;;;2.00;0.77;;;8.80;1.00;9.60;94570.00;;;;7393080;19;20148;-77
2022/05/26 00:04:20;;;;;;;2.73;0.70;;;8.80;1.00;9.80;94583.00;;;;7393152;19;20141;-78
2022/05/26 00:07:00;;;;;;;0.80;0.80;;;8.90;1.00;10.30;94583.00;;;;7389497;19;20478;-77
2022/05/26 00:09:34;;;;;;;2.73;0.90;;;9.00;1.00;10.30;94572.00;;;;7388844;19;20145;-77
2022/05/26 00:12:11;;;;;;;0.87;0.70;;;9.10;99.90;10.20;94588.00;;;;7388250;19;20148;-77
2022/05/26 00:14:42;;;;;;;1.23;0.77;;;9.20;99.90;10.40;94571.00;;;;7392777;19;20999;-77
2022/05/26 00:17:15;;;;;;;2.30;1.00;;;9.30;99.90;10.60;94586.00;;;;7391317;19;20162;-77
2022/05/26 00:19:42;;;;;;;3.17;1.03;;;9.50;99.90;10.60;94572.00;;;;7393682;19;20450;-77
2022/05/26 00:22:09;;;;;;;0.95;0.88;;;9.60;99.90;10.70;94582.00;;;;7386360;19;20145;-77
2022/05/26 00:24:43;;;;;;;0.90;0.80;;;9.70;99.90;10.70;94572.00;;;;7389034;19;20133;-77
2022/05/26 00:27:10;;;;;;;3.22;0.95;;;9.80;95.00;10.70;94555.00;;;;7394278;19;20152;-77
2022/05/26 00:29:39;;;;;;;1.83;0.70;;;9.90;30.50;10.60;94580.00;;;;7396715;19;20216;-77
2022/05/26 00:32:13;;;;;;;1.35;0.80;;;9.80;41.20;10.50;94579.00;;;;7397220;19;20155;-77
2022/05/26 00:34:40;;;;;;;2.50;0.77;;;9.80;71.80;10.70;94564.00;;;;7395383;19;20129;-76
2022/05/26 00:37:10;;;;;;;1.33;0.60;;;9.90;1.00;10.60;94581.00;;;;7396774;19;20144;-76
2022/05/26 00:39:43;;;;;;;0.75;0.70;;;9.90;1.00;10.50;94574.00;;;;7399472;19;20125;-76
2022/05/26 00:42:11;;;;;;;0.70;0.70;;;9.80;11.90;10.40;94554.00;;;;7398147;19;20155;-75
2022/05/26 00:44:39;;;;;;;3.10;1.00;;;9.80;1.00;10.50;94587.00;;;;7400192;19;20592;-75
2022/05/26 00:47:21;;;;;;;1.27;0.60;;;9.70;99.90;10.40;94583.00;;;;7399152;19;20173;-75
2022/05/26 00:50:22;;;;;;;3.35;1.60;;;9.70;99.90;10.10;94582.00;;;;7395862;19;20200;-75
2022/05/26 00:53:18;;;;;;;2.30;0.73;;;9.50;99.90;10.40;94589.00;;;;7397895;19;20160;-76
2022/05/26 00:56:07;;;;;;;1.97;0.90;;;9.50;99.90;10.10;94565.00;;;;7395100;19;20133;-77
2022/05/26 00:58:48;;;;;;;2.00;0.87;;;9.30;99.90;9.80;94573.00;;;;7398494;19;20133;-76
2022/05/26 01:01:17;;;;;;;1.35;0.98;;;9.20;99.90;9.80;94570.00;;;;7397197;19;20144;-75
2022/05/26 01:04:08;;;;;;;2.40;0.80;;;9.10;99.90;9.60;94564.00;;;;7398334;19;20204;-76
2022/05/26 01:07:14;;;;;;;2.47;0.90;;;8.90;99.90;9.40;94579.00;;;;7397059;19;20230;-75
2022/05/26 01:09:48;;;;;;;1.58;0.70;;;8.80;1.00;9.50;94559.00;;;;7399467;19;20139;-76
2022/05/26 01:12:16;;;;;;;1.60;0.80;;;8.80;1.00;9.50;94557.00;;;;7395444;19;20614;-76
2022/05/26 01:15:03;;;;;;;3.70;1.03;;;8.70;1.00;9.50;94570.00;;;;7398333;19;20177;-77
2022/05/26 01:18:24;;;;;;;0.93;0.67;;;8.70;1.00;9.40;94572.00;;;;7397546;19;20627;-77
2022/05/26 01:21:15;;;;;;;2.03;0.83;;;8.60;1.00;9.20;94575.00;;;;7392677;19;20171;-77
2022/05/26 01:24:29;;;;;;;1.47;0.60;;;8.50;1.00;9.20;94570.00;;;;7398953;19;20129;-77
2022/05/26 01:27:35;;;;;;;3.03;0.70;;;8.40;1.00;9.10;94544.00;;;;7395309;19;20500;-77
2022/05/26 01:30:23;;;;;;;1.00;0.90;;;8.30;1.00;9.30;94553.00;;;;7394887;19;20154;-77
2022/05/26 01:33:07;;;;;;;4.53;1.27;;;8.30;1.00;9.20;94560.00;;;;7396526;19;20145;-78
2022/05/26 01:36:13;;;;;;;0.73;0.60;;;8.20;1.00;9.10;94561.00;;;;7397193;19;20603;-77
2022/05/26 01:39:08;;;;;;;1.97;0.80;;;8.20;1.00;9.10;94560.00;;;;7397129;19;20551;-77
2022/05/26 01:42:07;;;;;;;2.40;0.87;;;8.20;1.00;8.90;94562.00;;;;7395887;19;20169;-77
2022/05/26 01:44:52;;;;;;;1.87;0.80;;;8.10;1.00;8.90;94560.00;;;;7395503;19;20498;-77
2022/05/26 01:48:07;;;;;;;0.80;0.77;;;8.00;1.00;8.90;94559.00;;;;7394840;19;20145;-77
2022/05/26 01:50:51;;;;;;;1.93;0.97;;;8.00;12.20;8.80;94524.00;;;;7396111;19;20121;-77
2022/05/26 01:53:47;;;;;;;2.17;0.70;;;8.00;15.90;8.80;94540.00;;;;7397043;19;20591;-77
2022/05/26 01:56:22;;;;;;;1.00;0.57;;;8.10;9.40;8.70;94551.00;;;;7397129;19;20152;-77
2022/05/26 01:59:25;;;;;;;2.23;0.87;;;8.00;2.30;8.80;94528.00;;;;7397521;19;20599;-78
2022/05/26 02:01:59;;;;;;;3.17;0.87;;;8.00;13.90;8.80;94556.00;;;;7395895;19;20164;-77
2022/05/26 02:04:44;;;;;;;0.60;0.60;;;8.00;34.30;9.00;94544.00;;;;7393882;19;20145;-77
2022/05/26 02:07:25;;;;;;;2.57;0.87;;;8.10;1.00;9.20;94547.00;;;;7392044;19;20179;-78
2022/05/26 02:10:12;;;;;;;1.40;0.80;;;8.20;1.00;9.40;94545.00;;;;7394834;19;20152;-77
2022/05/26 02:13:03;;;;;;;4.27;0.87;;;8.40;1.00;9.50;94528.00;;;;7396547;19;20610;-77
2022/05/26 02:15:51;;;;;;;0.77;0.60;;;8.60;1.00;9.70;94546.00;;;;7394509;19;20455;-77
2022/05/26 02:18:35;;;;;;;0.73;0.53;;;8.80;1.00;9.80;94547.00;;;;7396643;19;20125;-78
2022/05/26 02:21:31;;;;;;;0.90;0.60;;;8.90;99.90;9.80;94546.00;;;;7391799;19;20216;-77
2022/05/26 02:24:25;;;;;;;4.03;0.87;;;9.00;99.90;10.10;94537.00;;;;7393938;19;20169;-77
2022/05/26 02:26:58;;;;;;;2.37;0.87;;;9.20;99.90;10.40;94531.00;;;;7395824;19;20149;-77
2022/05/26 02:32:42;;;;;;;2.08;0.60;;;9.60;48.40;10.90;94552.00;;;;7395331;19;20636;-77
2022/05/26 02:35:22;;;;;;;1.10;0.70;;;9.80;1.00;10.80;94545.00;;;;7391853;19;20627;-77
2022/05/26 02:38:23;;;;;;;1.53;0.80;;;10.00;1.00;11.30;94542.00;;;;7394535;19;20922;-77
2022/05/26 02:40:53;;;;;;;2.17;0.75;;;10.30;1.00;11.40;94529.00;;;;7392566;19;20647;-77
2022/05/26 02:43:30;;;;;;;1.63;0.70;;;10.40;1.00;11.60;94538.00;;;;7394755;19;20212;-78
2022/05/26 02:46:57;;;;;;;0.68;0.60;;;10.60;99.90;11.70;94535.00;;;;7394636;19;20176;-77
2022/05/26 02:49:54;;;;;;;1.02;0.75;;;10.70;99.90;11.70;94532.00;;;;7390871;19;20190;-78
2022/05/26 02:52:48;;;;;;;1.55;0.88;;;10.80;99.90;11.60;94529.00;;;;7390162;19;20161;-77
2022/05/26 02:55:53;;;;;;;3.53;0.90;;;10.90;99.90;11.70;94523.00;;;;7394191;19;20145;-78
2022/05/26 02:58:48;;;;;;;1.92;0.88;;;11.00;99.90;11.70;94534.00;;;;7395052;19;20151;-77
2022/05/26 03:01:31;;;;;;;1.42;0.77;;;11.00;99.90;11.80;94548.00;;;;7393673;19;20137;-76
2022/05/26 03:04:13;;;;;;;0.70;0.70;;;11.00;99.90;11.80;94523.00;;;;7394794;19;20148;-75
2022/05/26 03:07:11;;;;;;;1.42;0.77;;;11.00;99.90;11.70;94547.00;;;;7392298;19;21135;-77
2022/05/26 03:09:41;;;;;;;0.75;0.70;;;11.00;99.90;11.70;94547.00;;;;7392681;19;20623;-76
2022/05/26 03:12:35;;;;;;;1.23;0.70;;;10.90;99.90;11.70;94546.00;;;;7393473;19;20155;-76
2022/05/26 03:15:07;;;;;;;1.73;0.57;;;10.90;99.90;11.40;94531.00;;;;7395761;19;20132;-75
2022/05/26 03:17:40;;;;;;;1.15;0.80;;;10.90;99.90;11.40;94536.00;;;;7391445;19;20608;-76
2022/05/26 03:20:09;;;;;;;1.85;0.52;;;10.90;99.90;11.40;94541.00;;;;7393086;19;20218;-75
2022/05/26 03:22:36;;;;;;;1.42;0.80;;;10.80;99.90;11.70;94554.00;;;;7394170;19;20511;-76
2022/05/26 03:25:10;;;;;;;3.50;0.67;;;10.70;99.90;11.40;94543.00;;;;7392139;19;20515;-76
2022/05/26 03:27:37;;;;;;;2.13;0.75;;;10.70;99.90;11.50;94546.00;;;;7394238;19;20867;-76
2022/05/26 03:30:06;;;;;;;5.30;1.00;;;10.70;99.90;11.30;94548.00;;;;7389804;19;20157;-76
2022/05/26 03:32:41;;;;;;;0.75;0.55;;;10.70;99.90;11.30;94543.00;;;;7394022;19;20631;-76
2022/05/26 03:40:57;;;;;;;1.95;0.70;;;10.50;99.90;11.00;94577.00;;;;7390353;19;20457;-76
2022/05/26 03:43:40;;;;;;;0.90;0.77;;;10.40;99.90;11.10;94563.00;;;;7393611;19;20159;-74
2022/05/26 03:46:07;;;;;;;2.07;0.70;;;10.40;99.90;11.20;94576.00;;;;7391140;19;20162;-75
2022/05/26 03:48:41;;;;;;;1.73;0.80;;;10.40;99.90;11.30;94562.00;;;;7389863;19;20139;-76
2022/05/26 03:51:11;;;;;;;2.33;0.80;;;10.40;99.90;11.10;94583.00;;;;7391377;19;20129;-76
2022/05/26 03:53:39;;;;;;;1.90;1.00;;;10.40;99.90;11.20;94584.00;;;;7390443;19;20129;-76
2022/05/26 03:56:12;;;;;;;4.32;0.82;;;10.30;1.00;10.90;94558.00;;;;7391124;19;20511;-76
2022/05/26 03:58:42;;;;;;;2.72;0.80;;;10.20;1.00;10.90;94574.00;;;;7388806;19;20619;-76
2022/05/26 04:01:10;;;;;;;2.15;0.80;;;10.20;1.00;10.80;94568.00;;;;7391204;19;20153;-76
2022/05/26 04:03:43;;;;;;;1.15;0.77;;;10.10;1.00;10.70;94595.00;;;;7396209;19;20604;-75
2022/05/26 04:06:23;;;;;;;3.40;0.70;;;10.00;1.00;10.50;94587.00;;;;7387043;19;20177;-76
2022/05/26 04:08:57;;;;;;;0.57;0.57;;;9.90;1.00;10.40;94594.00;;;;7392107;19;20136;-76
2022/05/26 04:11:25;;;;;;;1.10;0.60;;;9.80;1.00;10.60;94604.00;;;;7399185;19;20144;-76
2022/05/26 04:13:53;;;;;;;0.82;0.70;;;9.80;1.00;10.40;94595.00;;;;7396356;19;20149;-77
2022/05/26 04:16:26;;;;;;;0.80;0.53;;;9.80;1.00;10.40;94592.00;;;;7397464;19;20129;-75
2022/05/26 04:18:53;;;;;;;1.55;0.88;;;9.80;1.00;10.50;94618.00;;;;7395866;19;20141;-75
2022/05/26 04:21:21;;;;;;;1.53;0.60;;;9.90;1.00;10.70;94611.00;;;;7394965;19;20171;-75
2022/05/26 04:23:54;;;;;;;1.85;1.00;;;9.90;1.00;10.70;94604.00;;;;7396570;19;20161;-75
2022/05/26 04:26:21;;;;;;;1.90;0.77;;;10.00;1.00;10.70;94610.00;;;;7395477;19;20157;-75
2022/05/26 04:28:49;;;;;;;1.20;0.85;;;10.10;1.00;10.90;94610.00;;;;7395597;19;20172;-78
2022/05/26 04:31:22;;;;;;;1.05;0.90;;;10.20;1.00;10.90;94615.00;;;;7396294;19;20635;-76
2022/05/26 04:33:49;;;;;;;2.33;1.05;;;10.30;1.00;10.90;94626.00;;;;7395975;19;20140;-75
2022/05/26 04:36:16;;;;;;;5.07;0.90;;;10.30;1.00;11.00;94616.00;;;;7394860;19;20125;-75
2022/05/26 04:38:50;;;;;;;4.88;0.70;;;10.40;1.00;11.30;94622.00;;;;7397328;19;20121;-76
2022/05/26 04:41:17;;;;;;;1.27;0.85;;;10.50;1.00;11.40;94637.00;;;;7396094;19;20584;-76
2022/05/26 04:43:45;;;;;;;1.88;0.80;;;10.60;1.00;11.50;94631.00;;;;7396218;19;20141;-76
2022/05/26 04:46:18;;;;;;;1.60;0.95;;;10.70;1.00;11.70;94635.00;;;;7394596;19;20177;-76
2022/05/26 04:48:46;;;;;;;1.20;0.80;;;10.90;1.00;11.80;94625.00;;;;7397315;19;20132;-76
2022/05/26 04:51:13;;;;;;;6.10;1.00;;;11.00;1.00;12.10;94626.00;;;;7394772;19;20137;-76
2022/05/26 04:53:49;;;;;;;1.83;0.80;;;11.20;99.90;12.30;94647.00;;;;7394580;19;20140;-75
2022/05/26 04:56:16;;;;;;;1.08;0.90;;;11.50;99.90;12.40;94639.00;;;;7398071;19;20491;-75
2022/05/26 04:58:43;;;;;;;2.05;0.77;;;11.70;99.90;12.70;94619.00;;;;7395651;19;20129;-75
2022/05/26 05:01:19;;;;;;;4.32;1.35;;;11.90;99.90;12.80;94639.00;;;;7395095;19;20590;-75
2022/05/26 05:03:48;;;;;;;1.48;1.00;;;12.20;99.90;13.00;94622.00;;;;7396053;19;20148;-75
2022/05/26 05:06:17;;;;;;;1.63;0.75;;;12.40;99.90;13.30;94622.00;;;;7395438;19;20140;-75
2022/05/26 05:08:50;;;;;;;1.63;0.80;;;12.60;97.00;13.40;94610.00;;;;7398457;19;20156;-76
2022/05/26 05:11:17;;;;;;;2.20;0.90;;;12.80;1.00;13.50;94618.00;;;;7393899;19;20144;-76
2022/05/26 05:13:45;;;;;;;1.10;0.98;;;13.00;1.00;13.50;94608.00;;;;7393023;19;20145;-76
2022/05/26 05:16:30;;;;;;;1.33;0.73;;;13.20;5.20;13.40;94643.00;;;;7395165;19;20128;-76
2022/05/26 05:18:58;;;;;;;5.35;1.10;;;13.10;1.00;13.00;94652.00;;;;7395441;19;20152;-76
2022/05/26 05:21:57;;;;;;;1.58;0.60;;;13.10;1.00;13.10;94638.00;;;;7392942;19;20626;-76
2022/05/26 05:24:33;;;;;;;1.33;1.00;;;12.90;14.50;13.00;94627.00;;;;7394275;19;20129;-76
2022/05/26 05:27:44;;;;;;;1.77;0.90;;;12.80;29.70;13.00;94631.00;;;;7394694;19;20452;-76
2022/05/26 05:30:22;;;;;;;5.80;0.95;;;12.70;63.90;12.80;94641.00;;;;7395325;19;20125;-76
2022/05/26 05:33:06;;;;;;;2.63;1.08;;;12.50;67.30;12.70;94658.00;;;;7394658;19;20148;-75
2022/05/26 05:35:41;;;;;;;1.63;0.80;;;12.30;56.60;12.60;94675.00;;;;7395569;19;20152;-76
2022/05/26 05:38:17;;;;;;;2.60;0.80;;;12.30;99.90;12.50;94660.00;;;;7394502;19;20144;-75
2022/05/26 05:40:46;;;;;;;2.15;0.80;;;12.30;99.90;12.50;94678.00;;;;7394930;19;20478;-77
2022/05/26 05:43:13;;;;;;;1.98;0.80;;;12.20;99.90;12.50;94661.00;;;;7393896;19;20153;-76
2022/05/26 05:45:46;;;;;;;3.33;0.80;;;12.20;99.90;12.70;94679.00;;;;7394134;19;20133;-76
2022/05/26 05:48:14;;;;;;;1.95;0.80;;;12.20;99.90;12.70;94678.00;;;;7395508;19;21346;-76
2022/05/26 05:50:41;;;;;;;2.58;1.00;;;12.20;99.90;12.80;94665.00;;;;7394063;19;20140;-75
2022/05/26 05:53:15;;;;;;;2.60;0.70;;;12.30;99.90;13.10;94672.00;;;;7391796;19;20145;-76
2022/05/26 05:55:43;;;;;;;2.75;0.82;;;12.30;99.90;12.90;94693.00;;;;7396470;19;20518;-76
2022/05/26 05:58:11;;;;;;;2.20;1.10;;;12.30;99.90;12.70;94674.00;;;;7401232;19;20506;-78
2022/05/26 06:00:45;;;;;;;2.10;0.90;;;12.40;99.90;12.70;94680.00;;;;7399944;19;20141;-76
2022/05/26 06:03:13;;;;;;;1.63;0.90;;;12.50;99.90;12.70;94700.00;;;;7399312;19;20521;-75
2022/05/26 06:05:40;;;;;;;1.95;0.80;;;12.60;99.90;12.60;94695.00;;;;7398911;19;20140;-76
2022/05/26 06:08:20;;;;;;;4.03;0.70;;;12.70;99.90;12.70;94671.00;;;;7404236;19;20141;-76
2022/05/26 06:10:47;;;;;;;2.45;1.00;;;12.70;99.90;12.80;94673.00;;;;7398261;19;20125;-76
2022/05/26 06:13:21;;;;;;;2.97;0.85;;;12.70;99.90;13.00;94699.00;;;;7391976;19;20127;-76
2022/05/26 06:15:53;;;;;;;1.52;0.98;;;12.70;99.90;13.10;94693.00;;;;7392420;19;20615;-77
2022/05/26 06:18:20;;;;;;;3.60;0.63;;;12.80;99.90;13.20;94682.00;;;;7394309;19;20131;-77
2022/05/26 06:21:06;;;;;;;0.75;0.75;;;13.00;99.90;13.40;94689.00;;;;7391606;19;20168;-76
2022/05/26 06:23:34;;;;;;;1.33;0.73;;;13.10;99.90;13.50;94711.00;;;;7390866;19;20139;-76
2022/05/26 06:26:07;;;;;;;1.85;0.73;;;13.10;53.90;13.60;94693.00;;;;7391766;19;20147;-77
2022/05/26 06:31:26;;;;;;;2.78;0.90;;;13.40;1.00;13.80;94716.00;;;;7392177;19;20160;-75
2022/05/26 06:39:31;;;;;;;4.05;0.85;;;14.10;1.00;14.80;94722.00;;;;7392976;19;20559;-76
2022/05/26 06:42:05;;;;;;;2.20;0.93;;;14.30;1.00;14.90;94717.00;;;;7391498;19;21040;-76
2022/05/26 06:44:51;;;;;;;1.10;0.93;;;14.40;1.00;14.80;94719.00;;;;7394941;19;20462;-76
2022/05/26 06:47:26;;;;;;;1.00;0.90;;;14.60;1.00;14.90;94706.00;;;;7392101;19;20140;-76
2022/05/26 06:49:53;;;;;;;4.82;0.85;;;14.80;1.00;14.90;94688.00;;;;7391842;19;20197;-76
2022/05/26 06:52:23;;;;;;;1.40;0.80;;;14.90;1.00;15.20;94708.00;;;;7390616;19;20140;-76
2022/05/26 06:54:59;;;;;;;1.02;0.60;;;14.80;1.00;15.60;94708.00;;;;7391774;19;20210;-76
2022/05/26 06:57:26;;;;;;;2.38;1.10;;;15.00;1.00;15.50;94704.00;;;;7395986;19;20156;-76
2022/05/26 06:59:53;;;;;;;3.00;0.88;;;15.10;1.00;15.50;94713.00;;;;7391466;19;20673;-76
2022/05/26 07:02:28;;;;;;;2.40;1.00;;;15.20;1.00;15.50;94681.00;;;;7391783;19;20157;-76
2022/05/26 07:04:55;;;;;;;4.38;1.10;;;15.50;1.00;15.50;94702.00;;;;7390748;19;20630;-76
2022/05/26 07:07:25;;;;;;;3.15;0.90;;;15.60;1.00;15.40;94712.00;;;;7389634;19;20669;-76
2022/05/26 07:09:59;;;;;;;2.03;0.85;;;15.70;1.00;15.40;94714.00;;;;7390594;19;20136;-76
2022/05/26 07:12:34;;;;;;;1.92;0.80;;;15.60;1.00;15.10;94717.00;;;;7390998;19;20163;-76
2022/05/26 07:15:10;;;;;;;4.18;1.30;;;15.20;1.00;15.10;94704.00;;;;7390946;19;20480;-76
2022/05/26 07:17:44;;;;;;;2.75;0.90;;;15.10;1.00;15.00;94713.00;;;;7391597;19;20125;-75
2022/05/26 07:20:19;;;;;;;2.88;0.70;;;15.00;1.00;15.30;94734.00;;;;7390826;19;20147;-75
2022/05/26 07:22:46;;;;;;;2.35;0.98;;;15.10;1.00;15.10;94729.00;;;;7390445;19;20137;-76
2022/05/26 07:25:13;;;;;;;1.45;0.73;;;15.00;1.00;15.00;94725.00;;;;7393039;19;20611;-75
2022/05/26 07:27:48;;;;;;;3.22;0.95;;;14.90;1.00;15.00;94735.00;;;;7391435;19;20480;-75
2022/05/26 07:30:15;;;;;;;2.33;1.00;;;14.80;1.00;14.90;94732.00;;;;7390389;19;20160;-75
2022/05/26 07:32:42;;;;;;;3.65;0.93;;;14.60;1.00;14.90;94738.00;;;;7388769;19;20143;-75
2022/05/26 07:35:15;;;;;;;1.10;0.68;;;14.60;1.00;14.90;94764.00;;;;7391794;19;20217;-76
2022/05/26 07:43:23;;;;;;;1.17;0.70;;;14.70;1.00;14.90;94763.00;;;;7397512;19;20137;-75
2022/05/26 07:45:57;;;;;;;6.07;0.95;;;14.60;1.00;14.80;94742.00;;;;7397106;19;20140;-76
2022/05/26 07:48:24;;;;;;;3.58;1.05;;;14.70;1.00;15.00;94746.00;;;;7398250;19;20160;-76
2022/05/26 07:50:51;;;;;;;1.52;0.80;;;14.80;1.00;15.40;94711.00;;;;7397988;19;20133;-76
2022/05/26 07:53:24;;;;;;;5.22;1.35;;;14.90;1.00;15.40;94756.00;;;;7391799;19;20624;-76
2022/05/26 07:55:52;;;;;;;4.70;1.15;;;14.90;1.00;15.50;94762.00;;;;7395168;19;20491;-77
2022/05/26 07:58:20;;;;;;;1.63;0.90;;;14.90;1.00;15.00;94759.00;;;;7391906;19;20128;-75
2022/05/26 08:00:54;;;;;;;1.67;0.68;;;14.80;1.00;14.60;94761.00;;;;7393217;19;20504;-75
2022/05/26 08:03:22;;;;;;;1.98;1.10;;;14.80;1.00;14.80;94760.00;;;;7391342;19;20607;-75
2022/05/26 08:05:49;;;;;;;1.17;0.90;;;14.70;1.00;14.80;94780.00;;;;7390983;19;20141;-75
2022/05/26 08:08:30;;;;;;;3.28;0.88;;;14.60;1.00;14.70;94767.00;;;;7394009;19;20586;-74
2022/05/26 08:10:58;;;;;;;2.65;0.85;;;14.60;1.00;14.90;94741.00;;;;7397083;19;20599;-75
2022/05/26 08:13:32;;;;;;;1.27;1.05;;;14.60;1.00;15.20;94756.00;;;;7398039;19;20189;-74
2022/05/26 08:15:59;;;;;;;3.67;0.90;;;14.80;1.00;15.40;94772.00;;;;7397730;19;20636;-76
2022/05/26 08:18:27;;;;;;;2.67;1.00;;;15.10;1.00;15.90;94766.00;;;;7395983;19;20141;-75
2022/05/26 08:21:16;;;;;;;3.22;1.00;;;15.10;1.00;16.40;94752.00;;;;7395590;19;20143;-75
2022/05/26 08:23:43;;;;;;;1.63;1.10;;;15.40;1.00;16.30;94754.00;;;;7397465;19;20117;-76
2022/05/26 08:26:16;;;;;;;3.08;1.05;;;15.60;1.00;16.50;94780.00;;;;7399726;19;20598;-76
2022/05/26 08:28:44;;;;;;;4.10;1.05;;;15.90;1.00;16.40;94754.00;;;;7395988;19;20156;-76
2022/05/26 08:31:13;;;;;;;1.85;0.80;;;16.00;1.00;16.70;94794.00;;;;7395998;19;20137;-76
2022/05/26 08:33:48;;;;;;;2.45;1.00;;;16.00;1.00;16.40;94767.00;;;;7394696;19;20137;-74
2022/05/26 08:36:21;;;;;;;1.00;0.70;;;15.80;1.00;16.10;94777.00;;;;7395723;19;20152;-74
2022/05/26 08:38:57;;;;;;;3.30;1.13;;;15.80;1.00;15.90;94792.00;;;;7399091;19;20177;-75
2022/05/26 08:41:39;;;;;;;1.00;0.68;;;15.70;1.00;15.80;94807.00;;;;7396997;19;20461;-76
2022/05/26 08:44:38;;;;;;;1.75;0.90;;;15.60;1.00;15.60;94818.00;;;;7398393;19;20183;-75
2022/05/26 08:47:16;;;;;;;4.13;0.80;;;15.40;1.00;15.50;94821.00;;;;7393867;19;20153;-75
2022/05/26 08:50:08;;;;;;;0.93;0.80;;;15.20;1.00;15.30;94815.00;;;;7395858;19;20133;-76
2022/05/26 08:53:01;;;;;;;1.42;0.88;;;15.10;1.00;15.30;94830.00;;;;7394983;19;20133;-75
2022/05/26 08:55:47;;;;;;;3.92;1.02;;;14.90;1.00;15.40;94829.00;;;;7396118;19;20620;-76
2022/05/26 08:58:25;;;;;;;1.13;0.70;;;14.80;1.00;15.20;94815.00;;;;7395779;19;20140;-76
2022/05/26 09:01:05;;;;;;;4.05;1.00;;;14.80;1.00;15.50;94805.00;;;;7396482;19;20192;-75
2022/05/26 09:03:35;;;;;;;1.80;1.10;;;14.90;1.00;15.60;94822.00;;;;7396447;19;20120;-77
2022/05/26 09:06:26;;;;;;;1.17;0.68;;;15.00;1.00;15.90;94791.00;;;;7396674;19;20602;-76
2022/05/26 09:14:45;;;;;;;1.95;0.80;;;15.30;1.00;15.40;94813.00;;;;7394348;19;20733;-75
2022/05/26 09:17:22;;;;;;;1.23;0.98;;;15.10;1.00;15.10;94804.00;;;;7395963;19;20152;-76
2022/05/26 09:19:53;;;;;;;3.72;1.23;;;15.10;1.00;15.30;94821.00;;;;7394947;19;20575;-76
2022/05/26 09:22:31;;;;;;;1.35;0.90;;;15.10;1.00;15.40;94824.00;;;;7394209;19;20145;-76
2022/05/26 09:25:00;;;;;;;1.83;0.93;;;15.10;1.00;15.50;94819.00;;;;7394100;19;20149;-77
2022/05/26 09:27:36;;;;;;;1.33;0.80;;;15.20;1.00;15.50;94820.00;;;;7394063;19;20484;-75
2022/05/26 09:30:29;;;;;;;1.27;0.88;;;15.40;1.00;15.60;94833.00;;;;7397272;19;20154;-74
2022/05/26 09:33:18;;;;;;;1.23;1.00;;;15.50;1.00;16.40;94823.00;;;;7387318;19;20147;-77
2022/05/26 09:35:47;;;;;;;2.80;1.30;;;15.60;1.00;16.50;94808.00;;;;7391393;19;20164;-74
2022/05/26 09:38:32;;;;;;;2.42;1.10;;;15.70;1.00;16.40;94829.00;;;;7393359;19;20140;-76
2022/05/26 09:41:07;;;;;;;1.90;1.08;;;15.70;1.00;16.40;94821.00;;;;7395384;19;20612;-76
2022/05/26 09:43:53;;;;;;;1.77;1.02;;;15.90;1.00;16.20;94824.00;;;;7394717;19;20192;-75
2022/05/26 09:46:32;;;;;;;2.28;1.00;;;16.00;1.00;16.60;94828.00;;;;7393517;19;20177;-77
2022/05/26 09:49:13;;;;;;;2.72;1.25;;;16.10;1.00;16.20;94815.00;;;;7393693;19;20150;-78
2022/05/26 09:51:45;;;;;;;2.90;1.20;;;16.10;1.00;15.60;94850.00;;;;7393861;19;20137;-76
2022/05/26 09:54:32;;;;;;;1.38;1.10;;;16.00;1.00;15.30;94836.00;;;;7393874;19;20164;-74
2022/05/26 09:57:15;;;;;;;1.75;1.00;;;15.70;1.00;15.10;94862.00;;;;7393025;19;20127;-75
2022/05/26 09:59:48;;;;;;;2.35;1.10;;;15.40;1.00;15.20;94856.00;;;;7392549;19;20165;-76
2022/05/26 10:02:39;;;;;;;2.58;1.20;;;15.10;1.00;15.10;94859.00;;;;7392703;19;20595;-77
2022/05/26 10:06:17;;;;;;;2.00;0.93;;;15.10;1.00;15.20;94852.00;;;;7392376;19;20136;-76
2022/05/26 10:09:18;;;;;;;1.65;1.00;;;15.10;1.00;16.30;94854.00;;;;7395631;19;20208;-77
2022/05/26 10:12:13;;;;;;;2.88;1.40;;;15.50;1.00;16.70;94847.00;;;;7393802;19;20588;-76
2022/05/26 10:15:14;;;;;;;1.40;1.13;;;16.00;1.00;16.50;94848.00;;;;7391103;19;20499;-77
2022/05/26 10:18:24;;;;;;;2.67;1.10;;;16.30;1.00;16.20;94861.00;;;;7395522;19;20603;-77
2022/05/26 10:21:08;;;;;;;3.08;1.20;;;16.20;1.00;15.90;94858.00;;;;7391186;19;20172;-77
2022/05/26 10:24:27;;;;;;;1.77;1.00;;;16.10;1.00;15.50;94862.00;;;;7393266;19;20156;-77
2022/05/26 10:27:23;;;;;;;3.80;1.40;;;15.60;1.00;15.20;94870.00;;;;7391540;19;20603;-77
2022/05/26 10:30:24;;;;;;;2.28;1.25;;;15.20;1.00;15.10;94864.00;;;;7392360;19;20633;-76
2022/05/26 10:33:47;;;;;;;3.08;1.23;;;14.80;1.00;15.40;94857.00;;;;7391188;19;20125;-76
2022/05/26 10:36:51;;;;;;;2.13;1.10;;;14.70;1.00;15.80;94852.00;;;;7392073;19;20651;-76
2022/05/26 10:39:44;;;;;;;2.03;0.82;;;14.90;1.00;16.40;94845.00;;;;7392363;19;20140;-76
2022/05/26 10:42:38;;;;;;;3.30;1.50;;;15.50;1.00;16.70;94820.00;;;;7391835;19;20152;-76
2022/05/26 10:45:16;;;;;;;2.20;1.00;;;16.10;1.00;17.00;94810.00;;;;7395739;19;20179;-75
2022/05/26 10:48:23;;;;;;;2.33;1.02;;;16.60;1.00;17.10;94838.00;;;;7391372;19;20595;-75
2022/05/26 10:51:16;;;;;;;1.35;0.98;;;16.90;1.00;17.20;94839.00;;;;7392158;19;20217;-75
2022/05/26 10:54:05;;;;;;;2.55;1.30;;;17.10;1.00;16.60;94839.00;;;;7392351;19;20135;-76
2022/05/26 10:57:00;;;;;;;2.65;1.10;;;17.00;1.00;16.20;94833.00;;;;7395114;19;20152;-76
2022/05/26 11:00:06;;;;;;;2.45;1.00;;;16.60;1.00;15.70;94853.00;;;;7394775;19;20156;-76
2022/05/26 11:02:39;;;;;;;3.13;1.00;;;16.10;1.00;15.60;94859.00;;;;7391746;19;20125;-76
2022/05/26 11:05:31;;;;;;;2.42;0.90;;;15.80;1.00;15.20;94863.00;;;;7391807;19;20144;-77
2022/05/26 11:09:21;;;;;;;2.30;1.35;;;15.60;1.00;15.10;94859.00;;;;7391410;19;20698;-78
2022/05/26 11:12:01;;;;;;;3.97;1.60;;;15.10;1.00;14.80;94870.00;;;;7389237;19;20163;-76
2022/05/26 11:17:56;;;;;;;3.45;1.45;;;14.50;18.90;15.10;94849.00;;;;7392436;19;20745;-77
2022/05/26 11:20:36;;;;;;;5.68;1.20;;;14.40;98.90;15.10;94862.00;;;;7393180;19;20180;-77
2022/05/26 11:23:16;;;;;;;4.82;1.42;;;14.40;96.50;15.00;94859.00;;;;7390901;19;20470;-76
2022/05/26 11:26:26;;;;;;;4.88;1.25;;;14.60;68.30;15.80;94868.00;;;;7391782;19;20484;-76
2022/05/26 11:29:31;;;;;;;2.28;1.20;;;14.80;83.40;15.80;94854.00;;;;7390193;19;20222;-76
2022/05/26 11:38:28;;;;;;;3.53;1.55;;;15.50;1.00;16.80;94849.00;;;;7390118;19;20152;-75
2022/05/26 11:41:50;;;;;;;3.10;1.40;;;16.10;1.00;17.20;94844.00;;;;7393361;19;20155;-77
2022/05/26 11:45:13;;;;;;;4.78;1.30;;;16.70;1.00;16.80;94842.00;;;;7389537;19;20623;-77
2022/05/26 11:47:56;;;;;;;2.85;1.55;;;16.90;1.00;17.20;94853.00;;;;7391044;19;20152;-76
2022/05/26 11:50:46;;;;;;;3.28;1.20;;;17.10;1.00;17.30;94840.00;;;;7392812;19;20749;-75
2022/05/26 11:53:32;;;;;;;5.47;1.35;;;17.10;1.00;18.10;94841.00;;;;7389786;19;20774;-73
2022/05/26 11:56:06;;;;;;;3.67;1.35;;;17.30;1.00;17.80;94821.00;;;;7389289;19;20216;-74
2022/05/26 11:58:44;;;;;;;2.85;1.33;;;17.40;1.00;18.20;94838.00;;;;7389535;19;20161;-74
2022/05/26 12:01:21;;;;;;;2.63;1.30;;;17.80;1.00;18.60;94821.00;;;;7390128;19;20157;-76
2022/05/26 12:04:01;;;;;;;1.67;1.23;;;18.00;1.00;18.00;94842.00;;;;7389446;19;20149;-75
2022/05/26 12:07:03;;;;;;;4.28;1.40;;;18.20;1.00;17.00;94853.00;;;;7388570;19;20625;-75
2022/05/26 12:09:48;;;;;;;1.48;1.13;;;17.80;1.00;16.40;94830.00;;;;7389355;19;20607;-75
2022/05/26 12:12:17;;;;;;;3.08;1.30;;;16.90;1.00;16.20;94855.00;;;;7393145;19;20169;-74
2022/05/26 12:14:55;;;;;;;4.65;1.10;;;16.70;1.00;16.40;94858.00;;;;7389685;19;20125;-73
2022/05/26 12:17:32;;;;;;;2.65;1.05;;;16.40;1.00;16.30;94861.00;;;;7388227;19;20482;-74
2022/05/26 12:20:11;;;;;;;5.05;1.70;;;16.10;1.00;16.10;94860.00;;;;7389625;19;20160;-75
2022/05/26 12:22:51;;;;;;;3.17;1.42;;;15.90;1.00;15.90;94864.00;;;;7392540;19;20124;-75
2022/05/26 12:25:32;;;;;;;3.33;2.33;;;15.80;1.00;15.40;94865.00;;;;7396413;19;20603;-75
2022/05/26 12:28:14;;;;;;;1.48;1.13;;;15.50;1.00;15.30;94880.00;;;;7396610;19;20137;-76
2022/05/26 12:30:49;;;;;;;2.70;1.20;;;15.30;1.00;15.50;94870.00;;;;7399975;19;20160;-75
2022/05/26 12:33:19;;;;;;;1.92;1.10;;;15.20;1.00;15.20;94870.00;;;;7396699;19;20584;-75
2022/05/26 12:36:14;;;;;;;1.80;1.08;;;14.90;25.90;15.30;94868.00;;;;7396069;19;20476;-75
2022/05/26 12:39:43;;;;;;;1.33;1.20;;;14.80;29.60;15.40;94867.00;;;;7395775;19;20614;-75